Time;durP1;ratioP1;P1;durP2;ratioP2;P2;SDS_P1;SDS_P2;PMS_P1;PMS_P2;Temp;Humidity;BMP_temperature;BMP_pressure;BME280_temperature;BME280_humidity;BME280_pressure;Samples;Min_cycle;Max_cycle;Signal;HPM_P1;HPM_P2
2021/03/07 00:02:05;;;;;;;3.03;2.73;;;22.10;44.20;;;;;;5033103;28;20278;-69
2021/03/07 00:04:31;;;;;;;2.77;2.47;;;22.10;44.20;;;;;;5032960;28;20168;-69
2021/03/07 00:06:57;;;;;;;3.70;2.70;;;22.10;44.20;;;;;;5031951;28;20630;-69
2021/03/07 00:09:22;;;;;;;2.97;2.23;;;22.10;44.20;;;;;;5034204;28;20191;-69
2021/03/07 00:11:48;;;;;;;3.57;2.90;;;22.10;44.20;;;;;;5036940;28;20233;-68
2021/03/07 00:14:13;;;;;;;3.30;2.83;;;22.10;44.20;;;;;;5037187;28;20180;-69
2021/03/07 00:16:39;;;;;;;3.20;2.90;;;22.10;44.20;;;;;;5036903;28;20164;-68
2021/03/07 00:19:05;;;;;;;4.07;2.70;;;22.10;44.20;;;;;;5036762;28;20194;-69
2021/03/07 00:21:30;;;;;;;3.30;2.97;;;22.10;44.20;;;;;;5036719;28;20191;-69
2021/03/07 00:23:56;;;;;;;3.97;3.00;;;22.00;44.20;;;;;;5035591;28;20610;-69
2021/03/07 00:26:21;;;;;;;2.40;2.10;;;22.10;44.20;;;;;;5036749;28;20171;-69
2021/03/07 00:28:47;;;;;;;2.83;2.53;;;22.10;44.20;;;;;;5037405;28;20195;-69
2021/03/07 00:31:13;;;;;;;3.43;2.80;;;22.00;44.10;;;;;;5037500;28;20179;-69
2021/03/07 00:33:38;;;;;;;3.60;2.50;;;22.00;44.10;;;;;;5037367;28;20637;-69
2021/03/07 00:36:04;;;;;;;3.07;2.50;;;22.00;44.10;;;;;;5036857;28;20207;-69
2021/03/07 00:38:29;;;;;;;3.53;2.63;;;22.00;44.10;;;;;;5036421;28;20203;-69
2021/03/07 00:40:55;;;;;;;2.90;2.60;;;22.00;44.10;;;;;;5036717;28;20192;-69
2021/03/07 00:43:21;;;;;;;2.70;2.50;;;22.00;44.20;;;;;;5036647;28;20648;-69
2021/03/07 00:45:47;;;;;;;2.63;2.43;;;22.10;44.20;;;;;;5036553;28;20585;-69
2021/03/07 00:48:12;;;;;;;2.90;2.60;;;22.00;44.20;;;;;;5036354;28;20433;-69
2021/03/07 00:50:38;;;;;;;3.43;2.57;;;22.10;44.30;;;;;;5037444;28;20662;-69
2021/03/07 00:53:04;;;;;;;3.37;2.87;;;22.00;44.20;;;;;;5035158;28;20187;-69
2021/03/07 00:55:29;;;;;;;3.63;2.30;;;22.00;44.20;;;;;;5036194;28;20259;-69
2021/03/07 00:57:55;;;;;;;4.30;3.90;;;22.00;44.20;;;;;;5036211;28;20285;-69
2021/03/07 01:00:24;;;;;;;3.00;2.70;;;22.00;44.30;;;;;;5036105;28;20188;-69
2021/03/07 01:02:50;;;;;;;3.47;3.13;;;22.00;44.30;;;;;;5036181;28;20175;-69
2021/03/07 01:05:16;;;;;;;2.60;2.40;;;22.00;44.20;;;;;;5035981;28;20406;-69
2021/03/07 01:07:42;;;;;;;4.37;3.30;;;22.00;44.20;;;;;;5035890;28;20203;-69
2021/03/07 01:10:12;;;;;;;3.20;2.90;;;22.00;44.20;;;;;;5035888;28;20779;-69
2021/03/07 01:12:39;;;;;;;2.80;2.50;;;22.00;44.20;;;;;;5036295;28;20593;-69
2021/03/07 01:15:05;;;;;;;3.30;2.80;;;22.00;44.20;;;;;;5034573;28;20792;-69
2021/03/07 01:17:31;;;;;;;4.80;2.80;;;22.00;44.20;;;;;;5035673;28;20421;-69
2021/03/07 01:19:56;;;;;;;3.03;2.73;;;22.00;44.20;;;;;;5035160;28;20493;-69
2021/03/07 01:22:22;;;;;;;3.67;3.27;;;22.00;44.20;;;;;;5035560;28;20298;-69
2021/03/07 01:24:48;;;;;;;3.77;3.37;;;22.00;44.20;;;;;;5035650;28;20180;-69
2021/03/07 01:27:14;;;;;;;3.47;3.00;;;21.90;44.00;;;;;;5035867;28;20429;-68
2021/03/07 01:29:39;;;;;;;3.97;3.10;;;22.00;44.10;;;;;;5035411;28;20199;-69
2021/03/07 01:32:06;;;;;;;3.03;2.53;;;21.90;44.00;;;;;;5035410;28;20215;-69
2021/03/07 01:34:31;;;;;;;2.93;2.63;;;22.00;44.10;;;;;;5034169;28;20191;-69
2021/03/07 01:36:57;;;;;;;3.13;2.80;;;22.00;44.20;;;;;;5035329;28;20438;-69
2021/03/07 01:39:22;;;;;;;3.37;3.07;;;21.90;44.10;;;;;;5035323;28;20277;-69
2021/03/07 01:41:49;;;;;;;2.67;2.47;;;21.90;44.10;;;;;;5034020;28;20291;-69
2021/03/07 01:44:14;;;;;;;3.33;3.03;;;21.90;44.10;;;;;;5035451;28;20410;-69
2021/03/07 01:46:40;;;;;;;4.00;2.93;;;21.90;44.10;;;;;;5035177;28;20406;-69
2021/03/07 01:49:05;;;;;;;3.07;2.77;;;21.90;44.10;;;;;;5035115;28;20199;-69
2021/03/07 01:51:31;;;;;;;3.10;2.80;;;21.90;44.10;;;;;;5035443;28;20267;-69
2021/03/07 01:53:57;;;;;;;3.83;2.50;;;21.90;44.10;;;;;;5035092;28;20184;-69
2021/03/07 01:56:25;;;;;;;3.40;2.90;;;21.90;44.10;;;;;;5035072;28;20184;-68
2021/03/07 01:58:52;;;;;;;4.80;3.30;;;21.90;44.10;;;;;;5034924;28;20427;-69
2021/03/07 02:01:17;;;;;;;3.60;2.73;;;21.90;44.10;;;;;;5035115;28;20478;-69
2021/03/07 02:03:53;;;;;;;3.40;2.63;;;21.90;44.60;;;;;;5034866;28;20438;-69
2021/03/07 02:06:22;;;;;;;3.00;2.70;;;21.90;44.70;;;;;;5034869;28;20179;-68
2021/03/07 02:08:48;;;;;;;3.03;2.73;;;21.90;44.20;;;;;;5034721;28;20430;-69
2021/03/07 02:11:15;;;;;;;2.73;2.50;;;21.90;44.20;;;;;;5033500;28;20921;-69
2021/03/07 02:13:42;;;;;;;3.40;2.90;;;21.90;44.20;;;;;;5034697;28;20822;-69
2021/03/07 02:16:16;;;;;;;3.80;2.60;;;21.90;44.30;;;;;;5034634;28;20418;-69
2021/03/07 02:18:44;;;;;;;3.20;2.90;;;21.90;44.20;;;;;;5034603;28;20437;-69
2021/03/07 02:21:14;;;;;;;3.43;3.03;;;21.90;44.30;;;;;;5034753;28;20450;-69
2021/03/07 02:24:16;;;;;;;2.80;2.40;;;21.90;44.30;;;;;;5034513;28;20414;-69
2021/03/07 02:26:50;;;;;;;3.30;2.60;;;21.90;44.30;;;;;;4993167;28;20435;-69
2021/03/07 02:29:18;;;;;;;2.67;2.47;;;21.90;44.30;;;;;;5028179;28;20460;-69
2021/03/07 02:32:04;;;;;;;3.57;2.53;;;21.90;44.40;;;;;;5033447;28;20410;-69
2021/03/07 02:34:48;;;;;;;2.43;2.23;;;21.90;44.30;;;;;;5034348;28;20517;-69
2021/03/07 02:37:15;;;;;;;2.77;2.50;;;21.90;44.30;;;;;;5034227;28;20525;-69
2021/03/07 02:39:43;;;;;;;3.23;2.93;;;21.90;44.30;;;;;;5032907;28;20937;-69
2021/03/07 02:42:18;;;;;;;3.10;2.50;;;21.90;44.20;;;;;;5034137;28;20458;-69
2021/03/07 02:44:57;;;;;;;3.00;2.70;;;21.90;44.20;;;;;;5034400;28;20390;-69
2021/03/07 02:47:25;;;;;;;3.13;2.80;;;21.90;44.20;;;;;;5032755;28;20521;-69
2021/03/07 02:49:54;;;;;;;3.07;2.63;;;21.90;44.20;;;;;;5034006;28;20421;-69
2021/03/07 02:52:22;;;;;;;3.07;2.63;;;21.90;44.20;;;;;;5033888;28;20415;-69
2021/03/07 02:54:50;;;;;;;3.80;3.07;;;21.90;44.20;;;;;;5033942;28;20417;-69
2021/03/07 02:57:18;;;;;;;2.97;2.77;;;21.90;44.20;;;;;;5033853;28;20444;-68
2021/03/07 02:59:47;;;;;;;2.90;2.53;;;21.90;44.20;;;;;;5033834;28;20419;-69
2021/03/07 03:02:13;;;;;;;3.30;3.00;;;21.90;44.20;;;;;;5033687;28;20457;-69
2021/03/07 03:04:41;;;;;;;2.63;2.43;;;21.90;44.20;;;;;;5033692;28;20402;-69
2021/03/07 03:07:08;;;;;;;3.70;2.73;;;21.90;44.20;;;;;;5033686;28;20402;-69
2021/03/07 03:09:35;;;;;;;3.27;2.90;;;21.90;44.20;;;;;;5033622;28;20441;-69
2021/03/07 03:12:02;;;;;;;3.30;2.70;;;21.90;44.20;;;;;;5033638;28;20414;-69
2021/03/07 03:14:28;;;;;;;2.93;2.63;;;21.90;44.20;;;;;;5032321;28;20476;-69
2021/03/07 03:16:57;;;;;;;3.03;2.73;;;21.90;44.20;;;;;;5033066;28;20792;-68
2021/03/07 03:19:25;;;;;;;2.40;2.20;;;21.90;44.20;;;;;;5033442;28;20937;-69
2021/03/07 03:21:51;;;;;;;2.90;2.50;;;21.80;44.10;;;;;;5033895;28;20450;-69
2021/03/07 03:24:18;;;;;;;3.20;2.60;;;21.90;44.20;;;;;;5032194;28;20505;-69
2021/03/07 03:26:44;;;;;;;2.80;2.60;;;21.80;44.20;;;;;;5033358;28;20420;-69
2021/03/07 03:29:10;;;;;;;3.00;2.70;;;21.80;44.10;;;;;;5033303;28;20476;-69
2021/03/07 03:31:35;;;;;;;2.70;2.50;;;21.80;44.10;;;;;;5032092;28;20449;-69
2021/03/07 03:34:03;;;;;;;2.60;2.10;;;21.90;44.20;;;;;;5033339;28;20176;-68
2021/03/07 03:36:30;;;;;;;4.17;2.67;;;21.80;44.20;;;;;;5031868;28;20214;-69
2021/03/07 03:39:13;;;;;;;2.90;2.50;;;21.90;44.30;;;;;;5033262;28;20433;-69
2021/03/07 03:41:39;;;;;;;2.30;2.10;;;21.90;44.30;;;;;;5033378;28;20496;-69
2021/03/07 03:44:12;;;;;;;3.07;2.63;;;21.80;44.30;;;;;;5033048;28;20497;-69
2021/03/07 03:46:40;;;;;;;2.80;2.50;;;21.90;44.30;;;;;;5033157;28;20959;-69
2021/03/07 03:49:14;;;;;;;2.40;2.20;;;21.80;44.30;;;;;;5033063;28;20473;-69
2021/03/07 03:51:42;;;;;;;2.47;1.97;;;21.90;44.40;;;;;;5033127;28;20398;-69
2021/03/07 03:54:09;;;;;;;2.40;2.20;;;21.80;44.30;;;;;;5033045;28;20410;-69
2021/03/07 03:56:36;;;;;;;2.40;2.20;;;21.90;44.40;;;;;;5033016;28;20411;-69
2021/03/07 03:59:03;;;;;;;2.23;1.93;;;21.90;44.40;;;;;;5032873;28;20427;-69
2021/03/07 04:01:29;;;;;;;2.80;2.47;;;21.90;44.40;;;;;;5031636;28;20454;-69
2021/03/07 04:04:18;;;;;;;2.10;1.80;;;21.90;44.40;;;;;;5032962;28;20834;-69
2021/03/07 04:06:45;;;;;;;2.37;2.10;;;21.90;44.40;;;;;;5032888;28;20410;-69
2021/03/07 04:09:11;;;;;;;2.40;2.20;;;21.90;44.40;;;;;;5032807;28;20426;-69
2021/03/07 04:11:37;;;;;;;1.93;1.73;;;21.90;44.40;;;;;;5033152;28;20746;-69
2021/03/07 04:14:03;;;;;;;2.70;2.50;;;21.90;44.40;;;;;;5031614;28;20418;-68
2021/03/07 04:16:30;;;;;;;2.20;2.00;;;21.90;44.40;;;;;;5032784;28;20183;-69
2021/03/07 04:18:56;;;;;;;2.80;2.47;;;21.90;44.40;;;;;;5032983;28;20798;-69
2021/03/07 04:21:22;;;;;;;2.13;1.93;;;21.90;44.40;;;;;;5031441;28;20469;-69
2021/03/07 04:23:48;;;;;;;2.53;2.33;;;21.90;44.40;;;;;;5032997;28;20402;-69
2021/03/07 04:26:14;;;;;;;2.97;2.67;;;21.90;44.40;;;;;;5032762;28;20469;-68
2021/03/07 04:28:41;;;;;;;2.57;2.37;;;21.90;44.40;;;;;;5032695;28;20192;-69
2021/03/07 04:31:07;;;;;;;2.10;1.90;;;21.90;44.40;;;;;;5032724;28;20429;-69
2021/03/07 04:33:33;;;;;;;2.50;2.20;;;21.90;44.40;;;;;;5032952;28;20418;-69
2021/03/07 04:36:00;;;;;;;2.40;2.10;;;21.90;44.40;;;;;;5031323;28;20488;-69
2021/03/07 04:38:25;;;;;;;2.60;2.40;;;21.90;44.50;;;;;;5032489;28;20207;-68
2021/03/07 04:40:52;;;;;;;2.73;2.50;;;21.80;44.30;;;;;;5032574;28;20992;-69
2021/03/07 04:43:18;;;;;;;2.83;2.40;;;21.90;44.30;;;;;;5032893;28;20175;-69
2021/03/07 04:45:44;;;;;;;3.67;2.53;;;21.80;44.30;;;;;;5032583;28;20406;-69
2021/03/07 04:48:10;;;;;;;3.30;3.00;;;21.90;44.30;;;;;;5032826;28;20796;-69
2021/03/07 04:50:35;;;;;;;3.30;2.20;;;21.80;44.20;;;;;;5032510;28;20168;-69
2021/03/07 04:53:01;;;;;;;3.37;2.93;;;21.80;44.20;;;;;;5032975;28;20211;-69
2021/03/07 04:55:27;;;;;;;3.47;2.60;;;21.80;44.20;;;;;;5035283;28;20197;-69
2021/03/07 04:57:52;;;;;;;2.40;2.20;;;21.90;44.30;;;;;;5034800;28;20199;-69
2021/03/07 05:00:19;;;;;;;3.23;2.60;;;21.80;44.20;;;;;;5036141;28;20176;-69
2021/03/07 05:02:44;;;;;;;3.20;2.60;;;21.80;44.20;;;;;;5036207;28;20309;-69
2021/03/07 05:05:11;;;;;;;3.70;2.90;;;21.80;44.20;;;;;;5036034;28;20776;-69
2021/03/07 05:07:37;;;;;;;2.83;2.50;;;21.80;44.20;;;;;;5035906;28;20262;-69
2021/03/07 05:10:04;;;;;;;3.40;2.83;;;21.80;44.20;;;;;;5035926;28;20402;-68
2021/03/07 05:12:29;;;;;;;2.20;2.00;;;21.80;44.20;;;;;;5035872;28;20476;-69
2021/03/07 05:14:55;;;;;;;2.77;2.57;;;21.80;44.30;;;;;;5035804;28;20414;-69
2021/03/07 05:17:23;;;;;;;3.10;2.83;;;21.80;44.30;;;;;;5034440;28;20207;-69
2021/03/07 05:19:49;;;;;;;3.60;2.83;;;21.70;44.20;;;;;;5035811;28;20575;-69
2021/03/07 05:22:14;;;;;;;2.70;2.50;;;21.70;44.20;;;;;;5035623;28;20508;-69
2021/03/07 05:24:40;;;;;;;2.67;2.37;;;21.70;44.20;;;;;;5034402;28;20557;-69
2021/03/07 05:27:06;;;;;;;2.43;2.23;;;21.70;44.20;;;;;;5035615;28;20171;-69
2021/03/07 05:29:33;;;;;;;2.70;2.50;;;21.70;44.20;;;;;;5035462;28;20195;-69
2021/03/07 05:32:00;;;;;;;2.30;2.10;;;21.70;44.30;;;;;;5035716;28;20581;-69
2021/03/07 05:34:25;;;;;;;2.77;2.53;;;21.70;44.30;;;;;;5035469;28;20493;-69
2021/03/07 05:36:51;;;;;;;2.73;2.27;;;21.70;44.30;;;;;;5035251;28;20423;-69
2021/03/07 05:39:17;;;;;;;2.53;2.30;;;21.60;44.20;;;;;;5035325;28;20674;-69
2021/03/07 05:41:43;;;;;;;2.60;2.40;;;21.70;44.30;;;;;;5035530;28;20231;-69
2021/03/07 05:44:09;;;;;;;2.63;2.40;;;21.70;44.30;;;;;;5035284;28;20168;-69
2021/03/07 05:46:36;;;;;;;2.57;2.00;;;21.70;44.30;;;;;;5035275;28;20168;-69
2021/03/07 05:49:04;;;;;;;2.63;2.10;;;21.70;44.30;;;;;;5035109;28;20430;-69
2021/03/07 05:51:30;;;;;;;3.27;2.73;;;21.70;44.40;;;;;;5035144;28;20456;-69
2021/03/07 05:53:56;;;;;;;2.53;2.10;;;21.70;44.40;;;;;;5033893;28;20909;-69
2021/03/07 05:56:22;;;;;;;2.80;2.10;;;21.70;44.40;;;;;;5035122;28;20222;-68
2021/03/07 05:58:49;;;;;;;2.17;1.97;;;21.70;44.40;;;;;;5035099;28;20461;-69
2021/03/07 06:01:16;;;;;;;2.40;2.20;;;21.80;44.50;;;;;;5034940;28;20270;-69
2021/03/07 06:03:41;;;;;;;2.20;2.00;;;21.80;44.40;;;;;;5035205;28;20771;-69
2021/03/07 06:06:07;;;;;;;2.40;2.20;;;21.80;44.40;;;;;;5034769;28;20414;-69
2021/03/07 06:08:33;;;;;;;2.43;1.97;;;21.80;44.40;;;;;;5034724;28;20213;-68
2021/03/07 06:11:00;;;;;;;2.17;1.97;;;21.80;44.40;;;;;;5034814;28;20414;-69
2021/03/07 06:13:40;;;;;;;2.40;2.20;;;21.80;44.40;;;;;;5034760;28;20168;-68
2021/03/07 06:16:10;;;;;;;2.13;1.90;;;21.90;44.50;;;;;;5035038;28;20498;-69
2021/03/07 06:18:43;;;;;;;2.13;2.00;;;21.90;44.50;;;;;;5033311;28;20859;-69
2021/03/07 06:21:28;;;;;;;2.10;1.90;;;21.90;44.40;;;;;;5034507;28;20454;-69
2021/03/07 06:23:55;;;;;;;3.30;2.33;;;21.90;44.40;;;;;;5034576;28;20406;-69
2021/03/07 06:26:20;;;;;;;3.20;2.70;;;21.80;44.40;;;;;;5033178;28;20422;-69
2021/03/07 06:28:46;;;;;;;2.20;2.00;;;21.90;44.40;;;;;;5034436;28;20426;-69
2021/03/07 06:31:31;;;;;;;2.80;2.50;;;21.90;44.40;;;;;;5034783;28;20183;-69
2021/03/07 06:33:58;;;;;;;2.10;1.80;;;21.90;44.40;;;;;;5034312;28;20186;-69
2021/03/07 06:36:24;;;;;;;2.87;2.13;;;21.90;44.40;;;;;;5034166;28;20438;-69
2021/03/07 06:38:53;;;;;;;2.10;1.90;;;21.90;44.40;;;;;;5032921;28;20449;-69
2021/03/07 06:41:20;;;;;;;2.33;2.13;;;21.90;44.40;;;;;;5034135;28;20480;-69
2021/03/07 06:43:47;;;;;;;3.03;2.73;;;21.90;44.40;;;;;;5034140;28;20411;-69
2021/03/07 06:46:26;;;;;;;2.47;2.27;;;21.90;44.40;;;;;;5034119;28;20414;-68
2021/03/07 06:48:52;;;;;;;2.10;1.90;;;21.90;44.40;;;;;;5032723;28;20444;-69
2021/03/07 06:51:25;;;;;;;2.60;2.40;;;21.90;44.40;;;;;;5034080;28;20904;-69
2021/03/07 06:53:51;;;;;;;2.60;2.03;;;21.90;44.40;;;;;;5034033;28;20159;-69
2021/03/07 06:56:41;;;;;;;2.27;2.00;;;21.90;44.40;;;;;;5033926;28;20476;-69
2021/03/07 06:59:11;;;;;;;3.00;2.57;;;21.90;44.40;;;;;;5032548;28;20203;-69
2021/03/07 07:01:41;;;;;;;2.60;2.10;;;21.90;44.40;;;;;;5034264;28;20458;-69
2021/03/07 07:04:07;;;;;;;2.47;2.10;;;21.90;44.40;;;;;;5033803;28;20422;-69
2021/03/07 07:06:35;;;;;;;2.90;2.20;;;21.90;44.40;;;;;;5033963;28;20480;-69
2021/03/07 07:09:01;;;;;;;3.80;2.40;;;21.90;44.40;;;;;;5032306;28;20441;-69
2021/03/07 07:11:27;;;;;;;4.50;2.73;;;21.90;44.40;;;;;;5033623;28;20411;-69
2021/03/07 07:13:53;;;;;;;2.50;1.87;;;21.90;44.40;;;;;;5033575;28;20488;-69
2021/03/07 07:16:20;;;;;;;2.70;2.33;;;21.90;44.30;;;;;;5033564;28;20407;-67
2021/03/07 07:18:49;;;;;;;2.40;2.20;;;21.90;44.30;;;;;;5033050;28;20532;-69
2021/03/07 07:21:17;;;;;;;2.67;2.47;;;21.90;44.30;;;;;;5033335;28;21033;-68
2021/03/07 07:23:46;;;;;;;3.80;2.90;;;21.90;44.30;;;;;;5033752;28;20871;-69
2021/03/07 07:26:12;;;;;;;2.20;2.00;;;21.90;44.30;;;;;;5033347;28;20409;-67
2021/03/07 07:28:38;;;;;;;2.40;2.20;;;22.00;44.40;;;;;;5033250;28;20434;-69
2021/03/07 07:31:15;;;;;;;2.30;2.10;;;21.90;44.30;;;;;;5033611;28;20440;-69
2021/03/07 07:33:59;;;;;;;2.60;2.40;;;22.00;44.30;;;;;;5033607;28;20167;-69
2021/03/07 07:36:48;;;;;;;2.50;2.23;;;22.00;44.30;;;;;;5033265;28;20892;-69
2021/03/07 07:39:16;;;;;;;2.33;2.00;;;22.00;44.30;;;;;;5033044;28;20457;-69
2021/03/07 07:41:42;;;;;;;2.80;2.27;;;22.00;44.30;;;;;;5033188;28;20453;-68
2021/03/07 07:44:10;;;;;;;2.73;2.50;;;21.90;44.30;;;;;;5033105;28;20410;-69
2021/03/07 07:46:53;;;;;;;2.83;2.20;;;22.00;44.30;;;;;;5033137;28;20178;-68
2021/03/07 07:49:35;;;;;;;3.23;2.90;;;22.00;44.40;;;;;;5033039;28;20426;-69
2021/03/07 07:52:00;;;;;;;2.80;2.47;;;22.00;44.30;;;;;;5034732;28;20414;-68
2021/03/07 07:55:06;;;;;;;2.47;2.27;;;22.00;44.40;;;;;;5033024;28;20426;-69
2021/03/07 07:57:32;;;;;;;2.20;2.00;;;22.00;44.30;;;;;;5032877;28;20268;-69
2021/03/07 07:59:59;;;;;;;3.13;2.50;;;22.00;44.40;;;;;;5032922;28;20917;-69
2021/03/07 08:02:43;;;;;;;2.30;2.03;;;22.00;44.40;;;;;;5032899;28;20567;-69
2021/03/07 08:05:21;;;;;;;2.70;2.50;;;22.00;44.40;;;;;;5032895;28;20406;-69
2021/03/07 08:07:56;;;;;;;3.20;2.63;;;22.00;44.40;;;;;;5032848;28;20422;-69
2021/03/07 08:10:37;;;;;;;2.60;2.37;;;22.00;44.40;;;;;;5032834;28;20407;-68
2021/03/07 08:13:04;;;;;;;2.53;2.33;;;22.00;44.40;;;;;;5032855;28;20901;-69
2021/03/07 08:15:30;;;;;;;4.57;3.07;;;22.00;44.40;;;;;;5031508;28;20504;-69
2021/03/07 08:18:04;;;;;;;3.10;2.77;;;22.00;44.40;;;;;;5032667;28;20524;-69
2021/03/07 08:20:41;;;;;;;3.17;2.57;;;22.00;44.40;;;;;;5032567;28;20424;-68
2021/03/07 08:23:09;;;;;;;2.40;2.20;;;22.00;44.40;;;;;;5033067;28;20430;-69
2021/03/07 08:25:47;;;;;;;2.77;2.47;;;22.00;44.40;;;;;;5032745;28;20960;-69
2021/03/07 08:28:27;;;;;;;2.43;2.23;;;22.00;44.40;;;;;;5032654;28;20986;-69
2021/03/07 08:31:00;;;;;;;3.30;2.80;;;22.00;44.40;;;;;;5036272;28;20893;-69
2021/03/07 08:33:30;;;;;;;3.33;2.60;;;22.00;44.40;;;;;;5036611;28;20416;-68
2021/03/07 08:36:17;;;;;;;2.50;2.17;;;22.00;44.40;;;;;;5036500;28;20418;-68
2021/03/07 08:38:48;;;;;;;3.30;2.50;;;22.00;44.40;;;;;;5035574;28;20477;-69
2021/03/07 08:41:15;;;;;;;3.20;2.47;;;22.00;44.40;;;;;;5034339;28;20450;-69
2021/03/07 08:43:42;;;;;;;3.37;3.00;;;22.00;44.40;;;;;;5034415;28;20405;-69
2021/03/07 08:46:13;;;;;;;2.50;2.30;;;22.00;44.40;;;;;;5034292;28;20403;-69
2021/03/07 08:48:51;;;;;;;2.63;2.33;;;22.00;44.40;;;;;;5032852;28;20434;-68
2021/03/07 08:51:27;;;;;;;3.00;2.50;;;22.00;44.40;;;;;;5034207;28;20382;-68
2021/03/07 08:54:00;;;;;;;3.17;2.87;;;22.00;44.40;;;;;;5034769;28;20422;-69
2021/03/07 08:56:26;;;;;;;4.10;2.80;;;22.00;44.40;;;;;;5036413;28;20799;-68
2021/03/07 08:58:52;;;;;;;2.60;2.40;;;22.00;44.40;;;;;;5036062;28;20433;-68
2021/03/07 09:01:18;;;;;;;3.53;2.87;;;22.00;44.40;;;;;;5036050;28;20199;-69
2021/03/07 09:03:52;;;;;;;3.30;3.00;;;22.00;44.30;;;;;;5036284;28;20806;-69
2021/03/07 09:06:18;;;;;;;4.90;3.33;;;22.10;45.00;;;;;;5036350;28;20147;-67
2021/03/07 09:08:43;;;;;;;4.20;3.50;;;22.00;44.40;;;;;;5034607;28;20464;-68
2021/03/07 09:11:09;;;;;;;3.10;2.80;;;22.00;44.40;;;;;;5035973;28;20241;-67
2021/03/07 09:13:49;;;;;;;3.00;2.80;;;22.00;44.40;;;;;;5035909;28;20183;-69
2021/03/07 09:16:16;;;;;;;3.77;2.90;;;22.10;44.40;;;;;;5036106;28;20387;-68
2021/03/07 09:18:42;;;;;;;3.70;3.07;;;22.10;44.40;;;;;;5037225;28;20434;-69
2021/03/07 09:21:09;;;;;;;3.67;3.13;;;22.10;44.50;;;;;;5036223;28;20476;-69
2021/03/07 09:23:37;;;;;;;3.97;3.30;;;22.10;45.00;;;;;;5035508;28;20830;-69
2021/03/07 09:26:10;;;;;;;3.10;2.57;;;22.10;44.70;;;;;;5035677;28;20749;-69
2021/03/07 09:28:45;;;;;;;3.67;3.37;;;22.10;44.40;;;;;;5035786;28;20433;-68
2021/03/07 09:31:16;;;;;;;2.93;2.63;;;22.10;44.50;;;;;;5036083;28;20387;-69
2021/03/07 09:33:56;;;;;;;2.80;2.60;;;22.10;44.40;;;;;;5035446;28;20405;-68
2021/03/07 09:36:27;;;;;;;3.37;2.90;;;22.10;44.40;;;;;;5034083;28;20826;-68
2021/03/07 09:38:55;;;;;;;3.90;3.33;;;22.10;44.50;;;;;;5035419;28;20897;-68
2021/03/07 09:41:28;;;;;;;2.97;2.70;;;22.10;44.50;;;;;;5035070;28;20464;-68
2021/03/07 09:43:55;;;;;;;3.37;3.07;;;22.10;44.50;;;;;;5035290;28;20456;-69
2021/03/07 09:46:22;;;;;;;4.00;3.60;;;22.10;44.50;;;;;;5035233;28;20921;-68
2021/03/07 09:48:48;;;;;;;3.70;3.00;;;22.10;44.50;;;;;;5035135;28;20453;-68
2021/03/07 09:51:15;;;;;;;3.20;2.90;;;22.10;44.50;;;;;;5035385;28;20796;-69
2021/03/07 09:53:42;;;;;;;3.73;2.93;;;22.10;44.50;;;;;;5035088;28;20414;-68
2021/03/07 09:56:30;;;;;;;3.73;3.17;;;22.10;44.50;;;;;;5033804;28;20930;-68
2021/03/07 09:59:11;;;;;;;5.07;3.10;;;22.10;44.50;;;;;;5034994;28;20948;-68
2021/03/07 10:02:03;;;;;;;3.53;3.23;;;22.10;44.50;;;;;;5035180;28;20430;-68
2021/03/07 10:04:32;;;;;;;3.70;3.37;;;22.10;44.50;;;;;;5035391;28;20407;-69
2021/03/07 10:07:27;;;;;;;3.70;3.03;;;22.10;44.50;;;;;;5034810;28;20905;-69
2021/03/07 10:10:07;;;;;;;3.40;3.10;;;22.10;44.50;;;;;;5035029;28;20403;-69
2021/03/07 10:12:46;;;;;;;4.10;3.10;;;22.10;44.50;;;;;;5034799;28;20536;-68
2021/03/07 10:15:27;;;;;;;5.57;3.00;;;22.10;44.50;;;;;;5034689;28;20512;-68
2021/03/07 10:17:55;;;;;;;2.87;2.67;;;22.10;44.40;;;;;;5034630;28;20925;-68
2021/03/07 10:20:21;;;;;;;3.90;3.20;;;22.10;44.40;;;;;;5034566;28;20464;-69
2021/03/07 10:22:48;;;;;;;3.00;2.70;;;22.00;44.30;;;;;;5034445;28;20533;-69
2021/03/07 10:25:32;;;;;;;3.40;3.10;;;22.10;44.40;;;;;;5034539;28;20278;-69
2021/03/07 10:27:58;;;;;;;3.83;3.13;;;22.10;44.30;;;;;;5034481;28;20434;-69
2021/03/07 10:30:31;;;;;;;3.83;3.53;;;22.10;44.30;;;;;;5034356;28;20403;-68
2021/03/07 10:33:15;;;;;;;3.67;3.00;;;22.10;44.30;;;;;;5034401;28;20176;-69
2021/03/07 10:36:01;;;;;;;4.37;3.40;;;22.10;44.30;;;;;;5034272;28;20417;-69
2021/03/07 10:38:28;;;;;;;3.50;3.20;;;22.00;44.20;;;;;;5034193;28;20536;-69
2021/03/07 10:40:53;;;;;;;4.20;3.20;;;22.10;44.40;;;;;;5032861;28;20411;-68
2021/03/07 10:43:19;;;;;;;4.33;3.20;;;22.10;44.30;;;;;;5034424;28;20412;-67
2021/03/07 10:45:45;;;;;;;3.33;2.90;;;22.10;44.30;;;;;;5034095;28;20226;-69
2021/03/07 10:48:12;;;;;;;3.00;2.70;;;22.10;44.30;;;;;;5032756;28;20194;-69
2021/03/07 10:50:41;;;;;;;3.10;2.67;;;22.10;44.30;;;;;;5034338;28;20187;-68
2021/03/07 10:53:07;;;;;;;2.90;2.47;;;22.10;44.30;;;;;;5033133;28;20442;-69
2021/03/07 10:55:33;;;;;;;3.67;3.30;;;22.10;44.30;;;;;;5033913;28;20458;-69
2021/03/07 10:57:59;;;;;;;4.03;3.13;;;22.10;44.30;;;;;;5034119;28;20187;-69
2021/03/07 11:00:24;;;;;;;3.60;2.70;;;22.10;44.30;;;;;;5033865;28;20534;-69
2021/03/07 11:02:53;;;;;;;3.50;3.20;;;22.10;44.30;;;;;;5034531;28;20235;-69
2021/03/07 11:05:19;;;;;;;3.20;2.70;;;22.10;44.30;;;;;;5033789;28;20163;-68
2021/03/07 11:07:45;;;;;;;4.10;2.97;;;22.10;44.30;;;;;;5032379;28;20445;-69
2021/03/07 11:10:15;;;;;;;2.87;2.50;;;22.10;44.40;;;;;;5033722;28;20174;-69
2021/03/07 11:12:42;;;;;;;3.30;2.93;;;22.10;44.30;;;;;;5033772;28;20446;-69
2021/03/07 11:15:10;;;;;;;4.70;3.37;;;22.10;44.30;;;;;;5033909;28;20441;-68
2021/03/07 11:17:36;;;;;;;3.90;3.30;;;22.00;44.00;;;;;;5033124;28;20410;-69
2021/03/07 11:20:04;;;;;;;6.03;3.47;;;22.00;43.70;;;;;;5033574;28;20494;-68
2021/03/07 11:22:29;;;;;;;4.60;3.77;;;22.00;43.80;;;;;;5033368;28;20843;-69
2021/03/07 11:24:55;;;;;;;5.50;3.00;;;21.90;43.90;;;;;;5032545;28;20421;-70
2021/03/07 11:27:21;;;;;;;4.10;2.90;;;21.90;44.00;;;;;;5033191;28;20174;-68
2021/03/07 11:29:46;;;;;;;3.97;2.87;;;21.90;44.10;;;;;;5033446;28;20160;-69
2021/03/07 11:32:12;;;;;;;4.20;3.00;;;21.90;44.20;;;;;;5033273;28;20323;-68
2021/03/07 11:34:38;;;;;;;3.30;3.00;;;21.90;44.30;;;;;;5033268;28;20168;-69
2021/03/07 11:37:03;;;;;;;4.20;3.30;;;21.80;44.30;;;;;;5033109;28;20714;-69
2021/03/07 11:39:29;;;;;;;3.43;3.07;;;21.80;44.30;;;;;;5033008;28;20195;-69
2021/03/07 11:41:55;;;;;;;4.10;3.13;;;21.80;44.40;;;;;;5033022;28;20596;-69
2021/03/07 11:44:21;;;;;;;5.93;2.80;;;21.80;44.40;;;;;;5032982;28;20262;-67
2021/03/07 11:46:49;;;;;;;2.67;2.43;;;21.80;44.50;;;;;;5033079;28;20434;-69
2021/03/07 11:49:14;;;;;;;3.87;3.07;;;21.80;44.50;;;;;;5033051;28;20426;-69
2021/03/07 11:51:40;;;;;;;3.80;3.00;;;21.80;44.50;;;;;;5032982;28;20403;-69
2021/03/07 11:54:05;;;;;;;4.40;3.40;;;21.80;44.50;;;;;;5033307;28;20214;-69
2021/03/07 11:56:32;;;;;;;3.93;2.87;;;21.80;44.50;;;;;;5033020;28;20175;-69
2021/03/07 11:58:58;;;;;;;3.50;3.20;;;21.80;44.50;;;;;;5032849;28;20282;-69
2021/03/07 12:01:23;;;;;;;4.30;2.80;;;21.80;44.50;;;;;;5032871;28;20550;-69
2021/03/07 12:03:49;;;;;;;3.73;3.03;;;21.80;44.50;;;;;;5035996;28;20175;-68
2021/03/07 12:06:14;;;;;;;3.67;2.93;;;21.80;44.50;;;;;;5039622;28;20167;-68
2021/03/07 12:08:40;;;;;;;4.80;3.60;;;21.80;44.60;;;;;;5039655;28;20199;-69
2021/03/07 12:11:06;;;;;;;3.13;2.80;;;21.80;44.50;;;;;;5039471;28;20172;-68
2021/03/07 12:13:31;;;;;;;4.17;2.80;;;21.70;44.50;;;;;;5039441;28;20182;-69
2021/03/07 12:15:57;;;;;;;4.00;3.40;;;21.80;44.60;;;;;;5039306;28;20175;-67
2021/03/07 12:18:22;;;;;;;3.87;3.10;;;21.80;44.60;;;;;;5039452;28;20191;-68
2021/03/07 12:20:48;;;;;;;4.67;2.70;;;21.70;44.50;;;;;;5038162;28;20176;-69
2021/03/07 12:23:14;;;;;;;5.73;2.80;;;21.70;44.60;;;;;;5039384;28;20168;-69
2021/03/07 12:25:39;;;;;;;4.83;3.00;;;21.80;44.70;;;;;;5039415;28;20626;-69
2021/03/07 12:28:07;;;;;;;4.10;3.00;;;21.70;44.60;;;;;;5038040;28;20321;-69
2021/03/07 12:30:33;;;;;;;3.63;3.33;;;21.70;44.60;;;;;;5039256;28;20171;-67
2021/03/07 12:32:58;;;;;;;3.17;2.87;;;21.70;44.60;;;;;;5039322;28;20428;-69
2021/03/07 12:35:24;;;;;;;3.70;2.87;;;21.70;44.60;;;;;;5039278;28;20640;-69
2021/03/07 12:37:49;;;;;;;3.30;3.00;;;21.70;44.60;;;;;;5039047;28;20210;-69
2021/03/07 12:40:15;;;;;;;4.10;3.00;;;21.70;44.70;;;;;;5039246;28;20176;-69
2021/03/07 12:42:41;;;;;;;3.40;2.67;;;21.70;44.70;;;;;;5039118;28;20223;-69
2021/03/07 12:45:07;;;;;;;3.57;3.17;;;21.70;44.70;;;;;;5039360;28;20170;-69
2021/03/07 12:47:33;;;;;;;2.43;2.23;;;21.70;44.70;;;;;;5037757;28;20174;-68
2021/03/07 12:49:58;;;;;;;3.10;2.77;;;21.70;44.80;;;;;;5039127;28;20418;-69
2021/03/07 12:52:25;;;;;;;3.30;2.83;;;21.60;44.70;;;;;;5039125;28;20254;-69
2021/03/07 12:54:51;;;;;;;2.60;2.40;;;21.60;44.70;;;;;;5039080;28;20195;-69
2021/03/07 12:57:16;;;;;;;4.27;2.60;;;21.60;44.80;;;;;;5039272;28;20450;-68